Time;durP1;ratioP1;P1;durP2;ratioP2;P2;SDS_P1;SDS_P2;PMS_P1;PMS_P2;Temp;Humidity;BMP_temperature;BMP_pressure;BME280_temperature;BME280_humidity;BME280_pressure;Samples;Min_cycle;Max_cycle;Signal;HPM_P1;HPM_P2
2022/01/29 00:00:11;;;;;;;14.40;10.43;;;3.00;99.90;;;;;;5047010;28;20722;-91
2022/01/29 00:02:37;;;;;;;17.60;11.07;;;3.00;99.90;;;;;;5064201;28;20191;-91
2022/01/29 00:05:03;;;;;;;16.23;11.10;;;3.00;99.90;;;;;;5078643;28;20240;-91
2022/01/29 00:07:28;;;;;;;16.13;11.63;;;3.10;99.90;;;;;;5075947;28;20215;-92
2022/01/29 00:10:01;;;;;;;15.07;11.13;;;2.90;99.90;;;;;;5084952;28;20190;-90
2022/01/29 00:12:27;;;;;;;15.50;10.50;;;3.00;99.90;;;;;;5082326;28;20221;-90
2022/01/29 00:14:53;;;;;;;15.07;11.17;;;2.90;99.90;;;;;;5039681;28;20194;-89
2022/01/29 00:17:19;;;;;;;12.60;9.37;;;2.90;99.90;;;;;;5067212;28;20211;-89
2022/01/29 00:19:44;;;;;;;15.03;10.60;;;3.00;99.90;;;;;;5079240;28;20228;-89
2022/01/29 00:22:10;;;;;;;15.07;10.87;;;3.00;99.90;;;;;;5073059;28;20187;-89
2022/01/29 00:24:36;;;;;;;20.13;10.40;;;2.90;99.90;;;;;;5089166;28;20218;-89
2022/01/29 00:27:08;;;;;;;15.07;11.87;;;2.80;99.90;;;;;;5074109;28;20183;-89
2022/01/29 00:29:35;;;;;;;13.83;11.60;;;2.80;99.90;;;;;;5107351;28;20191;-89
2022/01/29 00:32:01;;;;;;;14.97;10.23;;;2.90;99.90;;;;;;5082902;28;20191;-89
2022/01/29 00:34:26;;;;;;;13.93;10.47;;;3.00;99.90;;;;;;5082990;28;20196;-89
2022/01/29 00:36:52;;;;;;;15.10;10.67;;;3.10;99.90;;;;;;5104549;28;20608;-89
2022/01/29 00:39:18;;;;;;;15.90;10.43;;;3.00;99.90;;;;;;5098122;28;20238;-89
2022/01/29 00:41:43;;;;;;;14.63;10.47;;;3.00;99.90;;;;;;5082903;28;20677;-89
2022/01/29 00:44:09;;;;;;;14.23;10.83;;;3.00;99.90;;;;;;5069596;28;20183;-89
2022/01/29 00:46:40;;;;;;;13.57;10.57;;;2.90;99.90;;;;;;5098662;28;20198;-89
2022/01/29 00:49:06;;;;;;;14.97;11.10;;;2.80;99.90;;;;;;5099744;28;20201;-90
2022/01/29 00:51:31;;;;;;;15.47;11.40;;;2.70;99.90;;;;;;5097453;28;20274;-89
2022/01/29 00:53:57;;;;;;;14.37;10.83;;;2.70;99.90;;;;;;5089282;28;20198;-89
2022/01/29 00:56:23;;;;;;;16.63;12.03;;;2.80;99.90;;;;;;5096898;28;20195;-89
2022/01/29 00:58:49;;;;;;;11.40;9.67;;;2.80;99.90;;;;;;5086095;28;20243;-90
2022/01/29 01:01:14;;;;;;;16.10;11.73;;;2.60;99.90;;;;;;5079519;28;20215;-89
2022/01/29 01:03:40;;;;;;;15.77;11.70;;;2.60;99.90;;;;;;5098920;28;20187;-89
2022/01/29 01:06:06;;;;;;;15.03;11.57;;;2.50;99.90;;;;;;5096764;28;20337;-89
2022/01/29 01:08:32;;;;;;;14.63;11.10;;;2.50;99.90;;;;;;5095057;28;20207;-89
2022/01/29 01:10:58;;;;;;;19.63;12.13;;;2.40;99.90;;;;;;5079646;28;20266;-89
2022/01/29 01:13:24;;;;;;;16.63;11.80;;;2.60;99.90;;;;;;5098755;28;20289;-89
2022/01/29 01:15:49;;;;;;;18.70;12.37;;;2.60;99.90;;;;;;5086095;28;20187;-89
2022/01/29 01:18:15;;;;;;;15.77;11.73;;;2.50;99.90;;;;;;5065104;28;20230;-89
2022/01/29 01:20:41;;;;;;;16.70;11.63;;;2.40;99.90;;;;;;5085468;28;20314;-88
2022/01/29 01:23:07;;;;;;;16.27;12.67;;;2.50;99.90;;;;;;5103599;28;20187;-89
2022/01/29 01:25:33;;;;;;;17.10;12.20;;;2.50;99.90;;;;;;5086036;28;20536;-89
2022/01/29 01:27:58;;;;;;;15.27;11.87;;;2.50;99.90;;;;;;5074643;28;20705;-89
2022/01/29 01:30:24;;;;;;;15.53;11.03;;;2.50;99.90;;;;;;5095918;28;20199;-89
2022/01/29 01:32:50;;;;;;;16.60;11.83;;;2.50;99.90;;;;;;5084730;28;20676;-88
2022/01/29 01:35:31;;;;;;;16.10;10.90;;;2.50;99.90;;;;;;5098831;28;20190;-89
2022/01/29 01:38:06;;;;;;;16.33;11.37;;;2.60;99.90;;;;;;5077800;28;20218;-90
2022/01/29 01:40:31;;;;;;;15.70;10.67;;;2.50;99.90;;;;;;5086850;28;20741;-89
2022/01/29 01:43:00;;;;;;;15.30;10.60;;;2.60;99.90;;;;;;5070095;28;20222;-89
2022/01/29 01:45:27;;;;;;;15.57;11.47;;;2.50;99.90;;;;;;5086444;28;20198;-89
2022/01/29 01:47:55;;;;;;;16.60;11.53;;;2.50;99.90;;;;;;5074811;28;20231;-89
2022/01/29 01:50:21;;;;;;;14.67;11.30;;;2.50;99.90;;;;;;5090552;28;20853;-89
2022/01/29 01:52:51;;;;;;;15.93;11.27;;;2.50;99.90;;;;;;5055442;28;20194;-88
2022/01/29 01:55:17;;;;;;;14.77;11.53;;;2.60;99.90;;;;;;5089376;28;20206;-88
2022/01/29 01:57:43;;;;;;;16.30;11.70;;;2.50;99.90;;;;;;5078861;28;20272;-89
2022/01/29 02:00:10;;;;;;;15.77;11.77;;;2.40;99.90;;;;;;5074497;28;20682;-89
2022/01/29 02:02:36;;;;;;;16.90;10.90;;;2.40;99.90;;;;;;5097491;28;20210;-89
2022/01/29 02:05:02;;;;;;;19.57;11.90;;;2.40;99.90;;;;;;5080980;28;20211;-90
2022/01/29 02:07:29;;;;;;;17.63;12.33;;;2.40;99.90;;;;;;5075822;28;20229;-90
2022/01/29 02:09:55;;;;;;;17.77;11.57;;;2.30;99.90;;;;;;5082203;28;20174;-91
2022/01/29 02:12:24;;;;;;;13.47;10.40;;;2.50;99.90;;;;;;5074777;28;20198;-88
2022/01/29 02:14:50;;;;;;;18.63;11.77;;;2.60;99.90;;;;;;5066190;28;20184;-91
2022/01/29 02:17:16;;;;;;;17.43;11.80;;;2.40;99.90;;;;;;5093861;28;20191;-89
2022/01/29 02:19:42;;;;;;;15.83;11.13;;;2.40;99.90;;;;;;5092540;28;20303;-90
2022/01/29 02:22:08;;;;;;;17.40;11.93;;;2.50;99.90;;;;;;5099601;28;20183;-89
2022/01/29 02:24:34;;;;;;;17.50;12.23;;;2.40;99.90;;;;;;5083950;28;20203;-89
2022/01/29 02:26:59;;;;;;;18.70;13.03;;;2.40;99.90;;;;;;5076554;28;20184;-89
2022/01/29 02:29:25;;;;;;;17.23;13.17;;;2.30;99.90;;;;;;5082054;28;20238;-89
2022/01/29 02:31:56;;;;;;;18.60;13.77;;;2.20;99.90;;;;;;5089663;28;20209;-88
2022/01/29 02:34:23;;;;;;;17.27;12.87;;;2.30;99.90;;;;;;5070871;28;20202;-89
2022/01/29 02:36:50;;;;;;;16.80;12.77;;;2.30;99.90;;;;;;5062440;28;20195;-89
2022/01/29 02:39:21;;;;;;;18.90;14.20;;;2.30;99.90;;;;;;5078937;28;20580;-89
2022/01/29 02:41:47;;;;;;;17.60;13.47;;;2.30;99.90;;;;;;5089595;28;20814;-89
2022/01/29 02:44:16;;;;;;;16.90;13.83;;;2.30;99.90;;;;;;5094141;28;20197;-89
2022/01/29 02:46:49;;;;;;;17.07;13.53;;;2.30;99.90;;;;;;5089015;28;20203;-89
2022/01/29 02:49:21;;;;;;;20.37;14.63;;;2.30;99.90;;;;;;5085051;28;20222;-89
2022/01/29 02:51:52;;;;;;;19.47;14.27;;;2.30;99.90;;;;;;5082533;28;20241;-89
2022/01/29 02:54:19;;;;;;;18.23;13.97;;;2.30;99.90;;;;;;5075067;28;20184;-89
2022/01/29 02:56:45;;;;;;;17.77;14.13;;;2.30;99.90;;;;;;5089995;28;20203;-89
2022/01/29 02:59:11;;;;;;;18.60;14.10;;;2.30;99.90;;;;;;5084984;28;20207;-89
2022/01/29 03:01:39;;;;;;;18.17;14.27;;;2.20;99.90;;;;;;5075333;28;20191;-89
2022/01/29 03:04:05;;;;;;;21.63;15.17;;;2.20;99.90;;;;;;5086186;28;20243;-89
2022/01/29 03:06:31;;;;;;;18.13;14.33;;;2.20;99.90;;;;;;5078555;28;20184;-89
2022/01/29 03:08:57;;;;;;;23.60;14.37;;;2.20;99.90;;;;;;5076160;28;20203;-89
2022/01/29 03:11:23;;;;;;;21.07;14.27;;;2.20;99.90;;;;;;5077150;28;20286;-89
2022/01/29 03:13:49;;;;;;;18.80;14.43;;;2.20;99.90;;;;;;5080798;28;20624;-89
2022/01/29 03:16:16;;;;;;;19.10;13.03;;;2.10;99.90;;;;;;5063815;28;20844;-89
2022/01/29 03:18:42;;;;;;;18.27;13.13;;;2.30;99.90;;;;;;5091014;28;20247;-89
2022/01/29 03:21:08;;;;;;;19.50;13.73;;;2.40;99.90;;;;;;5078878;28;20246;-89
2022/01/29 03:23:34;;;;;;;19.87;14.73;;;2.30;99.90;;;;;;5050233;28;20188;-89
2022/01/29 03:26:00;;;;;;;17.07;13.07;;;2.30;99.90;;;;;;5081571;28;20655;-89
2022/01/29 03:28:29;;;;;;;23.27;13.70;;;2.20;99.90;;;;;;5075748;28;20214;-89
2022/01/29 03:30:58;;;;;;;19.47;14.67;;;2.20;99.90;;;;;;5074953;28;20199;-89
2022/01/29 03:33:23;;;;;;;19.73;14.03;;;2.20;99.90;;;;;;5075926;28;20234;-89
2022/01/29 03:35:50;;;;;;;18.47;13.73;;;2.20;99.90;;;;;;5083410;28;20211;-89
2022/01/29 03:38:16;;;;;;;19.17;14.00;;;2.20;99.90;;;;;;5075190;28;20268;-89
2022/01/29 03:40:43;;;;;;;16.77;13.73;;;2.10;99.90;;;;;;5059319;28;20207;-89
2022/01/29 03:43:12;;;;;;;21.57;15.03;;;2.10;99.90;;;;;;5054206;28;20179;-89
2022/01/29 03:45:38;;;;;;;19.27;13.90;;;2.20;99.90;;;;;;5063176;28;20191;-89
2022/01/29 03:48:06;;;;;;;17.60;13.63;;;2.20;99.90;;;;;;5050442;28;20227;-89
2022/01/29 03:50:32;;;;;;;17.57;13.73;;;2.20;99.90;;;;;;5080894;28;20194;-89
2022/01/29 03:52:58;;;;;;;20.70;13.70;;;2.00;99.90;;;;;;5054134;28;20189;-89
2022/01/29 03:55:24;;;;;;;17.93;12.93;;;2.00;99.90;;;;;;5081887;28;20234;-89
2022/01/29 03:57:49;;;;;;;17.17;12.97;;;2.20;99.90;;;;;;5078471;28;20225;-89
2022/01/29 04:00:16;;;;;;;19.63;14.57;;;2.20;99.90;;;;;;5074460;28;20242;-89
2022/01/29 04:02:42;;;;;;;17.73;13.33;;;2.10;99.90;;;;;;5062954;28;20530;-89
2022/01/29 04:05:08;;;;;;;17.40;11.93;;;2.20;99.90;;;;;;5067900;28;20194;-89
2022/01/29 04:07:34;;;;;;;19.73;13.67;;;2.20;99.90;;;;;;5089041;28;20207;-91
2022/01/29 04:10:00;;;;;;;17.07;12.23;;;2.20;99.90;;;;;;5072797;28;20244;-89
2022/01/29 04:12:29;;;;;;;19.37;12.90;;;2.20;99.90;;;;;;5080839;28;20201;-90
2022/01/29 04:14:57;;;;;;;18.97;13.40;;;2.20;99.90;;;;;;5049511;28;20592;-89
2022/01/29 04:17:23;;;;;;;20.93;14.70;;;2.20;99.90;;;;;;5059078;28;20233;-89
2022/01/29 04:19:48;;;;;;;20.17;12.67;;;2.20;99.90;;;;;;5050465;28;20264;-90
2022/01/29 04:22:14;;;;;;;21.20;12.97;;;2.10;99.90;;;;;;5083201;28;20270;-90
2022/01/29 04:24:40;;;;;;;19.57;12.97;;;2.00;99.90;;;;;;5057659;28;20187;-89
2022/01/29 04:27:15;;;;;;;19.20;14.03;;;2.00;99.90;;;;;;5065203;28;20676;-89
2022/01/29 04:29:52;;;;;;;18.17;13.87;;;2.00;99.90;;;;;;5071799;28;20202;-90
2022/01/29 04:32:23;;;;;;;19.67;14.57;;;2.00;99.90;;;;;;5064253;28;20179;-90
2022/01/29 04:34:49;;;;;;;17.50;13.03;;;2.10;99.90;;;;;;5068350;28;20187;-90
2022/01/29 04:37:14;;;;;;;18.43;12.43;;;2.10;99.90;;;;;;5085829;28;20195;-90
2022/01/29 04:39:40;;;;;;;18.20;13.33;;;2.10;99.90;;;;;;5074520;28;20219;-89
2022/01/29 04:42:06;;;;;;;18.33;13.40;;;2.10;99.90;;;;;;5068079;28;20179;-90
2022/01/29 04:44:31;;;;;;;20.53;13.63;;;2.20;99.90;;;;;;5065894;28;20556;-90
2022/01/29 04:46:57;;;;;;;18.80;12.93;;;2.20;99.90;;;;;;5081790;28;20221;-90
2022/01/29 04:49:23;;;;;;;20.53;13.80;;;2.20;99.90;;;;;;5083688;28;20285;-90
2022/01/29 04:51:48;;;;;;;15.73;11.83;;;2.10;99.90;;;;;;5077012;28;20199;-90
2022/01/29 04:54:14;;;;;;;19.87;13.57;;;2.20;99.90;;;;;;5075105;28;20210;-90
2022/01/29 04:56:39;;;;;;;16.50;12.43;;;2.10;99.90;;;;;;5081328;28;20195;-90
2022/01/29 04:59:05;;;;;;;18.33;13.13;;;2.00;99.90;;;;;;5079940;28;20275;-90
2022/01/29 05:01:31;;;;;;;19.33;12.20;;;2.00;99.90;;;;;;5090460;28;20206;-90
2022/01/29 05:03:57;;;;;;;16.03;11.73;;;2.00;99.90;;;;;;5067571;28;20211;-89
2022/01/29 05:06:23;;;;;;;18.23;12.80;;;2.10;99.90;;;;;;5086946;28;20333;-90
2022/01/29 05:08:48;;;;;;;21.00;13.20;;;1.90;99.90;;;;;;5084293;28;20211;-89
2022/01/29 05:11:15;;;;;;;20.37;13.80;;;2.00;99.90;;;;;;5062271;28;20199;-90
2022/01/29 05:13:42;;;;;;;21.13;13.37;;;2.00;99.90;;;;;;5060376;28;20425;-89
2022/01/29 05:26:51;;;;;;;19.70;13.27;;;1.90;99.90;;;;;;5067612;28;20561;-89
2022/01/29 05:29:17;;;;;;;17.53;12.47;;;1.90;99.90;;;;;;5085504;28;20245;-89
2022/01/29 05:31:43;;;;;;;19.07;12.33;;;2.00;99.90;;;;;;5084322;28;20233;-89
2022/01/29 05:34:09;;;;;;;20.07;13.07;;;1.90;99.90;;;;;;5073203;28;20241;-90
2022/01/29 05:36:34;;;;;;;16.23;12.57;;;1.90;99.90;;;;;;5082372;28;20214;-90
2022/01/29 05:39:01;;;;;;;17.87;12.73;;;2.00;99.90;;;;;;5068107;28;20570;-90
2022/01/29 05:41:28;;;;;;;18.40;12.70;;;1.90;99.90;;;;;;5074453;28;20229;-90
2022/01/29 05:43:54;;;;;;;18.13;12.67;;;2.00;99.90;;;;;;5084573;28;20226;-89
2022/01/29 05:46:20;;;;;;;18.43;12.23;;;1.90;99.90;;;;;;5072271;28;20184;-89
2022/01/29 05:48:45;;;;;;;19.63;12.57;;;1.80;99.90;;;;;;5087811;28;20226;-90
2022/01/29 05:51:12;;;;;;;17.07;11.10;;;1.90;99.90;;;;;;5086730;28;20274;-89
2022/01/29 05:53:38;;;;;;;15.13;11.80;;;2.00;99.90;;;;;;5085648;28;20376;-90
2022/01/29 05:56:04;;;;;;;16.47;12.13;;;2.00;99.90;;;;;;5079739;28;20187;-89
2022/01/29 05:58:30;;;;;;;15.60;11.90;;;1.90;99.90;;;;;;5096263;28;20232;-90
2022/01/29 06:00:56;;;;;;;17.30;10.83;;;1.90;99.90;;;;;;5059051;28;20227;-89
2022/01/29 06:03:21;;;;;;;16.17;11.23;;;2.00;99.90;;;;;;5073533;28;20243;-89
2022/01/29 06:05:47;;;;;;;13.77;10.60;;;2.00;99.90;;;;;;5092261;28;20259;-90
2022/01/29 06:08:13;;;;;;;15.80;11.07;;;1.90;99.90;;;;;;5093779;28;20244;-90
2022/01/29 06:10:39;;;;;;;19.73;11.70;;;2.00;99.90;;;;;;5082522;28;20171;-90
2022/01/29 06:13:13;;;;;;;15.37;11.70;;;2.00;99.90;;;;;;5053874;28;20190;-91
2022/01/29 06:15:42;;;;;;;16.97;11.27;;;2.00;99.90;;;;;;5080117;28;20218;-89
2022/01/29 06:18:13;;;;;;;16.97;11.83;;;2.10;99.90;;;;;;5062700;28;20210;-89
2022/01/29 06:20:40;;;;;;;19.30;13.20;;;2.10;99.90;;;;;;5079783;28;20252;-90
2022/01/29 06:23:07;;;;;;;16.40;11.93;;;2.10;99.90;;;;;;5082474;28;20191;-90
2022/01/29 06:25:33;;;;;;;16.63;12.20;;;2.00;99.90;;;;;;5067978;28;20188;-90
2022/01/29 06:27:59;;;;;;;14.10;11.40;;;2.10;99.90;;;;;;5061825;28;20268;-89
2022/01/29 06:30:24;;;;;;;15.17;11.87;;;2.00;99.90;;;;;;5087429;28;20191;-90
2022/01/29 06:32:51;;;;;;;16.93;13.10;;;2.10;99.90;;;;;;5057357;28;20196;-90
2022/01/29 06:35:16;;;;;;;15.73;12.70;;;2.00;99.90;;;;;;5089659;28;20186;-91
2022/01/29 06:37:42;;;;;;;17.10;13.07;;;2.10;99.90;;;;;;5076017;28;20747;-90
2022/01/29 06:40:08;;;;;;;14.00;11.73;;;2.00;99.90;;;;;;5067589;28;20218;-89
2022/01/29 06:42:35;;;;;;;20.57;13.57;;;2.00;99.90;;;;;;5088913;28;20235;-89
2022/01/29 06:45:00;;;;;;;15.80;12.73;;;2.00;99.90;;;;;;5059259;28;20199;-89
2022/01/29 06:47:26;;;;;;;17.67;12.80;;;2.10;99.90;;;;;;5086929;28;20627;-91
2022/01/29 06:49:52;;;;;;;17.00;13.77;;;2.20;99.90;;;;;;5073129;28;20191;-90
2022/01/29 06:52:18;;;;;;;19.97;14.10;;;2.10;99.90;;;;;;5086114;28;20202;-90
2022/01/29 06:54:44;;;;;;;18.93;14.13;;;2.10;99.90;;;;;;5063761;28;20203;-90
2022/01/29 06:57:09;;;;;;;20.27;14.13;;;2.20;99.90;;;;;;5061234;28;20322;-90
2022/01/29 06:59:35;;;;;;;18.43;13.63;;;2.20;99.90;;;;;;5062722;28;20225;-90
2022/01/29 07:02:01;;;;;;;17.70;13.13;;;2.30;99.90;;;;;;5085554;28;20263;-90
2022/01/29 07:04:27;;;;;;;19.77;13.27;;;2.30;99.90;;;;;;5070504;28;20191;-90
2022/01/29 07:06:52;;;;;;;19.30;14.57;;;2.30;99.90;;;;;;5082732;28;20662;-90
2022/01/29 07:09:18;;;;;;;16.20;13.10;;;2.30;99.90;;;;;;5073805;28;20238;-90
2022/01/29 07:11:45;;;;;;;19.80;14.03;;;2.30;99.90;;;;;;5072394;28;20195;-90
2022/01/29 07:14:16;;;;;;;16.63;12.73;;;2.30;99.90;;;;;;5073279;28;20206;-90
2022/01/29 07:16:43;;;;;;;17.07;13.30;;;2.30;99.90;;;;;;5044922;28;20241;-90
2022/01/29 07:19:09;;;;;;;17.87;13.03;;;2.40;99.90;;;;;;5088134;28;20209;-90
2022/01/29 07:21:35;;;;;;;17.60;13.03;;;2.40;99.90;;;;;;5088395;28;20298;-90
2022/01/29 07:24:01;;;;;;;15.60;12.30;;;2.50;99.90;;;;;;5090791;28;20191;-91
2022/01/29 07:26:26;;;;;;;16.50;12.30;;;2.60;99.90;;;;;;5097920;28;20258;-90
2022/01/29 07:28:52;;;;;;;14.70;11.13;;;2.60;99.90;;;;;;5069509;28;20295;-90
2022/01/29 07:31:18;;;;;;;14.13;11.37;;;2.70;99.90;;;;;;5060910;28;20198;-90
2022/01/29 07:33:44;;;;;;;14.77;11.37;;;2.70;99.90;;;;;;5097110;28;20183;-90
2022/01/29 07:36:10;;;;;;;14.97;11.37;;;2.70;99.90;;;;;;5087666;28;20602;-91
2022/01/29 07:38:35;;;;;;;13.60;11.07;;;2.70;99.90;;;;;;5060547;28;20303;-90
2022/01/29 07:41:01;;;;;;;15.63;11.80;;;2.60;99.90;;;;;;5077824;28;20208;-90
2022/01/29 07:43:27;;;;;;;14.50;10.47;;;2.60;99.90;;;;;;5083648;28;20666;-90
2022/01/29 07:45:52;;;;;;;17.17;11.87;;;2.60;99.90;;;;;;5069174;28;20437;-90
2022/01/29 07:48:18;;;;;;;17.23;12.23;;;2.60;99.90;;;;;;5082032;28;20232;-90
2022/01/29 07:50:45;;;;;;;15.17;12.33;;;2.50;99.90;;;;;;5087261;28;20191;-90
2022/01/29 07:53:11;;;;;;;17.60;12.13;;;2.60;99.90;;;;;;5088998;28;20688;-90
2022/01/29 07:55:36;;;;;;;14.23;11.53;;;2.60;99.90;;;;;;5088505;28;20237;-90
2022/01/29 07:58:04;;;;;;;17.97;12.80;;;2.60;99.90;;;;;;5060993;28;20270;-90
2022/01/29 08:00:31;;;;;;;16.83;12.40;;;2.60;99.90;;;;;;5087374;28;20638;-90
2022/01/29 08:02:56;;;;;;;15.23;11.60;;;2.70;99.90;;;;;;5069798;28;20196;-91
2022/01/29 08:05:22;;;;;;;15.93;12.73;;;2.70;99.90;;;;;;5069596;28;20198;-90
2022/01/29 08:07:48;;;;;;;16.47;11.77;;;2.60;99.90;;;;;;5088580;28;20219;-90
2022/01/29 08:10:14;;;;;;;15.00;11.97;;;2.70;99.90;;;;;;5071091;28;20200;-90
2022/01/29 08:12:39;;;;;;;13.77;10.57;;;2.70;99.90;;;;;;5053965;28;20195;-91
2022/01/29 08:15:06;;;;;;;14.33;10.83;;;2.70;99.90;;;;;;5063827;28;20199;-90
2022/01/29 08:17:32;;;;;;;14.93;10.67;;;2.60;99.90;;;;;;5089827;28;20712;-90
2022/01/29 08:19:58;;;;;;;17.57;11.10;;;2.70;99.90;;;;;;5088476;28;20207;-90
2022/01/29 08:22:24;;;;;;;13.93;11.27;;;2.60;99.90;;;;;;5091090;28;20241;-89
2022/01/29 08:24:52;;;;;;;17.17;11.73;;;2.60;99.90;;;;;;5101382;28;20183;-90
2022/01/29 08:27:18;;;;;;;13.73;10.13;;;2.60;99.90;;;;;;5077451;28;20203;-90
2022/01/29 08:29:44;;;;;;;13.93;10.17;;;2.60;99.90;;;;;;5072470;28;20644;-90
2022/01/29 08:32:10;;;;;;;13.73;11.07;;;2.60;99.90;;;;;;5094127;28;20191;-89
2022/01/29 08:34:35;;;;;;;12.93;10.40;;;2.70;99.90;;;;;;5101147;28;20838;-90
2022/01/29 08:37:03;;;;;;;13.33;10.37;;;2.80;99.90;;;;;;5104295;28;20199;-89
2022/01/29 08:39:29;;;;;;;17.07;10.90;;;2.70;99.90;;;;;;5077012;28;20203;-90
2022/01/29 08:41:55;;;;;;;13.73;10.63;;;2.70;99.90;;;;;;5079471;28;20205;-90
2022/01/29 08:44:21;;;;;;;13.33;9.80;;;2.80;99.90;;;;;;5099034;28;20255;-89
2022/01/29 08:46:47;;;;;;;13.07;11.20;;;2.80;99.90;;;;;;5099618;28;20191;-90
2022/01/29 08:49:13;;;;;;;13.63;10.07;;;2.80;99.90;;;;;;5080066;28;20252;-89
2022/01/29 08:51:39;;;;;;;13.33;11.17;;;2.80;99.90;;;;;;5085090;28;20191;-91
2022/01/29 08:54:05;;;;;;;13.63;10.30;;;2.90;99.90;;;;;;5066479;28;20610;-90
2022/01/29 08:56:31;;;;;;;15.80;10.97;;;3.00;99.90;;;;;;5071173;28;20207;-90
2022/01/29 08:58:59;;;;;;;16.27;10.87;;;2.90;99.90;;;;;;5075349;28;20215;-90
2022/01/29 09:01:25;;;;;;;14.50;10.03;;;3.00;99.90;;;;;;5065750;28;20211;-89
2022/01/29 09:03:53;;;;;;;11.90;9.40;;;3.10;99.90;;;;;;5084459;28;20202;-90
2022/01/29 09:06:19;;;;;;;13.63;10.43;;;3.20;99.90;;;;;;5100195;28;20191;-90
2022/01/29 09:08:48;;;;;;;17.70;10.83;;;3.30;99.90;;;;;;5072278;28;20242;-89
2022/01/29 09:11:15;;;;;;;13.90;10.03;;;3.40;99.90;;;;;;5071405;28;20198;-89
2022/01/29 09:13:41;;;;;;;9.13;7.70;;;3.30;99.90;;;;;;5089387;28;20228;-90
2022/01/29 09:16:07;;;;;;;13.47;10.10;;;3.30;99.90;;;;;;5090997;28;20246;-90
2022/01/29 09:18:33;;;;;;;14.47;11.13;;;3.40;99.90;;;;;;5091312;28;20219;-90
2022/01/29 09:20:59;;;;;;;13.20;10.57;;;3.50;99.90;;;;;;5089974;28;20233;-90
2022/01/29 09:23:24;;;;;;;14.80;10.93;;;3.50;99.90;;;;;;5097696;28;20577;-90
2022/01/29 09:25:50;;;;;;;13.03;9.70;;;3.40;99.90;;;;;;5069854;28;20210;-91
2022/01/29 09:28:16;;;;;;;14.40;9.97;;;3.40;99.90;;;;;;5076337;28;20207;-90
2022/01/29 09:30:43;;;;;;;11.57;8.80;;;3.50;99.90;;;;;;5069721;28;20547;-90
2022/01/29 09:33:10;;;;;;;11.27;9.50;;;3.50;99.90;;;;;;5059226;28;20188;-91
2022/01/29 09:35:38;;;;;;;12.10;9.73;;;3.60;99.90;;;;;;5091141;28;20700;-91
2022/01/29 09:38:05;;;;;;;11.90;9.70;;;3.50;99.90;;;;;;5080524;28;20239;-92
2022/01/29 09:40:31;;;;;;;12.53;9.00;;;3.60;99.90;;;;;;5075355;28;20256;-91
2022/01/29 09:42:59;;;;;;;14.13;10.30;;;3.50;99.90;;;;;;5084420;28;20711;-91
2022/01/29 09:45:25;;;;;;;13.43;9.73;;;3.40;99.90;;;;;;5090177;28;20186;-91
2022/01/29 09:48:01;;;;;;;14.33;9.87;;;3.30;99.90;;;;;;5094528;28;20196;-91
2022/01/29 09:50:28;;;;;;;12.27;8.80;;;3.30;99.90;;;;;;5080717;28;20251;-91
2022/01/29 09:52:53;;;;;;;11.33;8.97;;;3.40;99.90;;;;;;5098047;28;20187;-91
2022/01/29 09:55:19;;;;;;;11.67;9.13;;;3.30;99.90;;;;;;5075871;28;20195;-91
2022/01/29 09:57:45;;;;;;;13.60;9.33;;;3.30;99.90;;;;;;5066348;28;20227;-91
2022/01/29 10:00:11;;;;;;;14.63;9.47;;;3.20;99.90;;;;;;5081069;28;20214;-91
2022/01/29 10:02:38;;;;;;;15.13;9.83;;;3.20;99.90;;;;;;5091516;28;20183;-91
2022/01/29 10:05:04;;;;;;;13.80;9.37;;;3.20;99.90;;;;;;5075674;28;20645;-91
2022/01/29 10:07:31;;;;;;;11.87;8.97;;;3.20;99.90;;;;;;5069230;28;20553;-91
2022/01/29 10:10:00;;;;;;;13.77;9.80;;;3.30;99.90;;;;;;5084380;28;20195;-90
2022/01/29 10:12:27;;;;;;;12.53;10.03;;;3.30;99.90;;;;;;5079248;28;20566;-90
2022/01/29 10:15:11;;;;;;;11.60;8.87;;;3.30;99.90;;;;;;5062920;28;20260;-91
2022/01/29 10:17:44;;;;;;;13.57;9.73;;;3.40;99.90;;;;;;5072175;28;20214;-92
2022/01/29 10:20:26;;;;;;;12.10;9.33;;;3.40;99.90;;;;;;5089437;28;20215;-90
2022/01/29 10:23:00;;;;;;;10.87;8.30;;;3.40;99.90;;;;;;5048498;28;20191;-90
2022/01/29 10:25:32;;;;;;;12.57;9.30;;;3.50;99.90;;;;;;5093936;28;20243;-90
2022/01/29 10:28:16;;;;;;;13.23;9.40;;;3.40;99.90;;;;;;5087343;28;20203;-90
2022/01/29 10:30:51;;;;;;;13.57;9.83;;;3.40;99.90;;;;;;5074734;28;20187;-91
2022/01/29 10:33:28;;;;;;;12.73;9.57;;;3.50;99.90;;;;;;5089570;28;20187;-90
2022/01/29 10:36:00;;;;;;;11.37;8.70;;;3.40;99.90;;;;;;5084125;28;20698;-90
2022/01/29 10:38:26;;;;;;;13.67;9.63;;;3.40;99.90;;;;;;5071909;28;20239;-89
2022/01/29 10:41:19;;;;;;;11.97;8.67;;;3.50;99.90;;;;;;5078222;28;20207;-89
2022/01/29 10:44:20;;;;;;;11.87;8.87;;;3.50;99.90;;;;;;5076301;28;20198;-89
2022/01/29 10:46:50;;;;;;;10.77;8.23;;;3.50;99.90;;;;;;5088629;28;20645;-89
2022/01/29 10:49:28;;;;;;;10.47;8.80;;;3.30;99.90;;;;;;5058508;28;20293;-89
2022/01/29 10:52:14;;;;;;;13.47;8.27;;;3.30;99.90;;;;;;5073128;28;20195;-89
2022/01/29 10:54:42;;;;;;;8.10;6.63;;;3.40;99.90;;;;;;5088037;28;20202;-90
2022/01/29 10:57:16;;;;;;;10.97;7.13;;;3.40;99.90;;;;;;5078815;28;20218;-90
2022/01/29 10:59:53;;;;;;;8.17;7.27;;;3.30;99.90;;;;;;5057719;28;20195;-90
2022/01/29 11:02:22;;;;;;;6.20;5.33;;;3.40;99.90;;;;;;5089317;28;20183;-90
2022/01/29 11:04:49;;;;;;;8.57;6.63;;;3.40;99.90;;;;;;5057690;28;20258;-90
2022/01/29 11:09:43;;;;;;;8.77;6.33;;;3.30;99.90;;;;;;5071083;28;20202;-90
2022/01/29 11:12:11;;;;;;;7.50;5.33;;;3.40;99.90;;;;;;5088904;28;20203;-90
2022/01/29 11:14:37;;;;;;;7.03;5.40;;;3.50;99.90;;;;;;5078749;28;20205;-90
2022/01/29 11:17:04;;;;;;;8.73;6.40;;;3.50;99.90;;;;;;5085667;28;20175;-90
2022/01/29 11:19:32;;;;;;;9.20;6.40;;;3.40;99.90;;;;;;5073145;28;20191;-90
2022/01/29 11:22:02;;;;;;;7.03;5.73;;;3.50;99.90;;;;;;5090926;28;20224;-90
2022/01/29 11:24:29;;;;;;;7.20;5.50;;;3.60;99.90;;;;;;5071491;28;20195;-90
2022/01/29 11:26:55;;;;;;;7.57;6.07;;;3.60;99.90;;;;;;5072156;28;20549;-90
2022/01/29 11:29:31;;;;;;;6.17;5.57;;;3.50;99.90;;;;;;5086464;28;20259;-90
2022/01/29 11:32:21;;;;;;;9.63;6.37;;;3.60;99.90;;;;;;5087689;28;20184;-90
2022/01/29 11:35:16;;;;;;;6.00;5.40;;;3.50;99.90;;;;;;5080500;28;20178;-90
2022/01/29 11:37:48;;;;;;;6.17;5.23;;;3.50;99.90;;;;;;5061832;28;20332;-92
2022/01/29 11:40:26;;;;;;;8.10;5.77;;;3.70;99.90;;;;;;5085054;28;20214;-90
2022/01/29 11:43:01;;;;;;;5.93;5.00;;;3.70;99.90;;;;;;5096586;28;20185;-90
2022/01/29 11:45:42;;;;;;;9.00;6.03;;;3.70;99.90;;;;;;5091172;28;20209;-90
2022/01/29 11:48:32;;;;;;;10.13;5.17;;;3.60;99.90;;;;;;5087635;28;20211;-90
2022/01/29 11:51:05;;;;;;;7.17;5.83;;;3.60;99.90;;;;;;5080029;28;20228;-90
2022/01/29 11:53:45;;;;;;;7.40;5.57;;;3.60;99.90;;;;;;5088127;28;20200;-90
2022/01/29 11:56:31;;;;;;;6.93;5.80;;;3.60;99.90;;;;;;5087889;28;20196;-90
2022/01/29 11:59:27;;;;;;;6.90;5.37;;;3.60;99.90;;;;;;5085628;28;20336;-90
2022/01/29 12:02:15;;;;;;;6.60;5.50;;;3.60;99.90;;;;;;5089917;28;20534;-90
2022/01/29 12:04:51;;;;;;;7.53;5.63;;;3.60;99.90;;;;;;5087018;28;20183;-89
2022/01/29 12:07:34;;;;;;;9.37;4.87;;;3.60;99.90;;;;;;5071292;28;20541;-90
2022/01/29 12:10:10;;;;;;;8.27;5.73;;;3.70;99.90;;;;;;5088247;28;20217;-91
2022/01/29 12:12:43;;;;;;;6.83;6.13;;;3.60;99.90;;;;;;5085547;28;20201;-90
2022/01/29 12:15:09;;;;;;;8.90;5.83;;;3.60;99.90;;;;;;5094798;28;20659;-90
2022/01/29 12:17:47;;;;;;;5.27;4.27;;;3.60;99.90;;;;;;5085160;28;20218;-89
2022/01/29 12:20:15;;;;;;;6.10;5.20;;;3.70;99.90;;;;;;5086306;28;20241;-89
2022/01/29 12:22:42;;;;;;;6.50;5.20;;;3.50;99.90;;;;;;5080442;28;20531;-91
2022/01/29 12:25:20;;;;;;;6.70;6.00;;;3.50;99.90;;;;;;5084507;28;20205;-90
2022/01/29 12:27:48;;;;;;;6.93;5.33;;;3.50;99.90;;;;;;5092124;28;20219;-89
2022/01/29 12:30:19;;;;;;;7.20;5.70;;;3.60;99.90;;;;;;5082350;28;20199;-90
2022/01/29 12:32:56;;;;;;;6.33;5.73;;;3.60;99.90;;;;;;5059238;28;20194;-90
2022/01/29 12:35:32;;;;;;;10.27;6.20;;;3.60;99.90;;;;;;5079553;28;20278;-90
2022/01/29 12:37:58;;;;;;;9.13;5.87;;;3.60;99.90;;;;;;5086184;28;20215;-91
2022/01/29 12:40:25;;;;;;;5.67;5.07;;;3.70;99.90;;;;;;5093857;28;20585;-90
2022/01/29 12:42:59;;;;;;;6.90;5.80;;;3.70;99.90;;;;;;5076736;28;20191;-89
2022/01/29 12:45:27;;;;;;;7.30;6.03;;;3.70;99.90;;;;;;5076003;28;20187;-90
2022/01/29 12:48:12;;;;;;;7.00;5.63;;;3.70;99.90;;;;;;5066007;28;20636;-90
2022/01/29 12:50:39;;;;;;;8.63;5.73;;;3.60;99.90;;;;;;5089679;28;20991;-90
2022/01/29 12:53:17;;;;;;;6.60;5.33;;;3.80;99.90;;;;;;5072702;28;20206;-90
2022/01/29 12:55:43;;;;;;;6.07;5.47;;;3.90;99.90;;;;;;5089737;28;20210;-90
2022/01/29 12:58:09;;;;;;;6.37;5.70;;;3.90;99.90;;;;;;5087989;28;20635;-90